sensor_id;sensor_type;location;lat;lon;timestamp;P1;durP1;ratioP1;P2;durP2;ratioP2
59418;SDS011;45224;50.904;6.038;2023-04-03T00:00:35;7.65;;;4.53;;
59418;SDS011;45224;50.904;6.038;2023-04-03T00:02:06;8.83;;;5.60;;
59418;SDS011;45224;50.904;6.038;2023-04-03T00:03:36;9.73;;;4.80;;
59418;SDS011;45224;50.904;6.038;2023-04-03T00:05:07;9.25;;;5.20;;
59418;SDS011;45224;50.904;6.038;2023-04-03T00:06:38;7.00;;;4.60;;
59418;SDS011;45224;50.904;6.038;2023-04-03T00:08:08;7.20;;;4.57;;
59418;SDS011;45224;50.904;6.038;2023-04-03T00:09:39;9.18;;;4.28;;
59418;SDS011;45224;50.904;6.038;2023-04-03T00:11:10;11.57;;;5.57;;
59418;SDS011;45224;50.904;6.038;2023-04-03T00:12:40;7.00;;;4.57;;
59418;SDS011;45224;50.904;6.038;2023-04-03T00:14:11;8.10;;;4.70;;
59418;SDS011;45224;50.904;6.038;2023-04-03T00:15:41;9.73;;;5.40;;
59418;SDS011;45224;50.904;6.038;2023-04-03T00:17:12;8.67;;;4.63;;
59418;SDS011;45224;50.904;6.038;2023-04-03T00:18:42;9.47;;;4.70;;
59418;SDS011;45224;50.904;6.038;2023-04-03T00:20:13;10.33;;;4.90;;
59418;SDS011;45224;50.904;6.038;2023-04-03T00:21:43;8.37;;;5.10;;
59418;SDS011;45224;50.904;6.038;2023-04-03T00:23:14;6.07;;;4.85;;
59418;SDS011;45224;50.904;6.038;2023-04-03T00:24:45;10.10;;;5.03;;
59418;SDS011;45224;50.904;6.038;2023-04-03T00:26:15;7.37;;;4.93;;
59418;SDS011;45224;50.904;6.038;2023-04-03T00:27:46;8.82;;;5.28;;
59418;SDS011;45224;50.904;6.038;2023-04-03T00:29:16;10.13;;;5.20;;
59418;SDS011;45224;50.904;6.038;2023-04-03T00:30:50;7.10;;;5.37;;
59418;SDS011;45224;50.904;6.038;2023-04-03T00:32:20;10.45;;;5.25;;
59418;SDS011;45224;50.904;6.038;2023-04-03T00:33:51;6.90;;;5.10;;
59418;SDS011;45224;50.904;6.038;2023-04-03T00:35:21;9.23;;;5.43;;
59418;SDS011;45224;50.904;6.038;2023-04-03T00:36:53;8.70;;;5.25;;
59418;SDS011;45224;50.904;6.038;2023-04-03T00:38:23;9.90;;;5.40;;
59418;SDS011;45224;50.904;6.038;2023-04-03T00:39:53;10.53;;;5.13;;
59418;SDS011;45224;50.904;6.038;2023-04-03T00:41:24;10.45;;;5.45;;
59418;SDS011;45224;50.904;6.038;2023-04-03T00:42:56;8.95;;;5.75;;
59418;SDS011;45224;50.904;6.038;2023-04-03T00:45:59;6.87;;;5.07;;
59418;SDS011;45224;50.904;6.038;2023-04-03T00:47:30;10.63;;;5.30;;
59418;SDS011;45224;50.904;6.038;2023-04-03T00:49:01;9.98;;;5.30;;
59418;SDS011;45224;50.904;6.038;2023-04-03T00:50:33;7.67;;;4.83;;
59418;SDS011;45224;50.904;6.038;2023-04-03T00:52:07;9.02;;;5.03;;
59418;SDS011;45224;50.904;6.038;2023-04-03T00:53:50;10.95;;;5.75;;
59418;SDS011;45224;50.904;6.038;2023-04-03T00:56:56;8.82;;;4.97;;
59418;SDS011;45224;50.904;6.038;2023-04-03T00:58:31;7.47;;;5.40;;
59418;SDS011;45224;50.904;6.038;2023-04-03T01:00:08;9.45;;;5.68;;
59418;SDS011;45224;50.904;6.038;2023-04-03T01:01:40;9.43;;;5.80;;
59418;SDS011;45224;50.904;6.038;2023-04-03T01:03:12;13.40;;;5.43;;
59418;SDS011;45224;50.904;6.038;2023-04-03T01:04:44;7.93;;;5.10;;
59418;SDS011;45224;50.904;6.038;2023-04-03T01:06:15;8.02;;;5.65;;
59418;SDS011;45224;50.904;6.038;2023-04-03T01:07:51;8.32;;;6.03;;
59418;SDS011;45224;50.904;6.038;2023-04-03T01:09:23;10.45;;;5.28;;
59418;SDS011;45224;50.904;6.038;2023-04-03T01:10:53;10.18;;;5.80;;
59418;SDS011;45224;50.904;6.038;2023-04-03T01:12:27;9.82;;;5.45;;
59418;SDS011;45224;50.904;6.038;2023-04-03T01:14:00;8.13;;;5.43;;
59418;SDS011;45224;50.904;6.038;2023-04-03T01:15:31;10.25;;;5.18;;
59418;SDS011;45224;50.904;6.038;2023-04-03T01:17:23;8.05;;;5.72;;
59418;SDS011;45224;50.904;6.038;2023-04-03T01:19:00;9.13;;;5.13;;
59418;SDS011;45224;50.904;6.038;2023-04-03T01:22:17;8.65;;;5.38;;
59418;SDS011;45224;50.904;6.038;2023-04-03T01:26:10;10.70;;;5.75;;
59418;SDS011;45224;50.904;6.038;2023-04-03T01:27:42;10.25;;;5.43;;
59418;SDS011;45224;50.904;6.038;2023-04-03T01:29:12;9.57;;;6.03;;
59418;SDS011;45224;50.904;6.038;2023-04-03T01:32:14;10.30;;;5.60;;
59418;SDS011;45224;50.904;6.038;2023-04-03T01:33:45;10.00;;;5.78;;
59418;SDS011;45224;50.904;6.038;2023-04-03T01:35:16;9.75;;;5.22;;
59418;SDS011;45224;50.904;6.038;2023-04-03T01:36:47;9.20;;;5.60;;
59418;SDS011;45224;50.904;6.038;2023-04-03T01:38:17;6.43;;;4.80;;
59418;SDS011;45224;50.904;6.038;2023-04-03T01:39:48;10.00;;;5.47;;
59418;SDS011;45224;50.904;6.038;2023-04-03T01:41:18;9.50;;;4.90;;
59418;SDS011;45224;50.904;6.038;2023-04-03T01:42:51;9.73;;;5.53;;
59418;SDS011;45224;50.904;6.038;2023-04-03T01:44:22;8.83;;;4.90;;
59418;SDS011;45224;50.904;6.038;2023-04-03T01:45:52;6.33;;;4.73;;
59418;SDS011;45224;50.904;6.038;2023-04-03T01:47:24;9.10;;;5.20;;
59418;SDS011;45224;50.904;6.038;2023-04-03T01:48:55;11.40;;;5.10;;
59418;SDS011;45224;50.904;6.038;2023-04-03T01:50:25;10.40;;;5.40;;
59418;SDS011;45224;50.904;6.038;2023-04-03T01:51:56;12.02;;;5.20;;
59418;SDS011;45224;50.904;6.038;2023-04-03T01:53:27;8.90;;;4.90;;
59418;SDS011;45224;50.904;6.038;2023-04-03T01:54:57;11.93;;;5.43;;
59418;SDS011;45224;50.904;6.038;2023-04-03T01:56:28;10.80;;;4.67;;
59418;SDS011;45224;50.904;6.038;2023-04-03T01:57:59;9.23;;;4.50;;
59418;SDS011;45224;50.904;6.038;2023-04-03T01:59:29;9.38;;;4.93;;
59418;SDS011;45224;50.904;6.038;2023-04-03T02:01:00;6.67;;;4.40;;
59418;SDS011;45224;50.904;6.038;2023-04-03T02:02:32;8.23;;;4.88;;
59418;SDS011;45224;50.904;6.038;2023-04-03T02:04:03;8.48;;;4.75;;
59418;SDS011;45224;50.904;6.038;2023-04-03T02:05:34;10.80;;;4.93;;
59418;SDS011;45224;50.904;6.038;2023-04-03T02:07:05;10.05;;;4.70;;
59418;SDS011;45224;50.904;6.038;2023-04-03T02:08:35;9.97;;;5.10;;
59418;SDS011;45224;50.904;6.038;2023-04-03T02:10:06;8.50;;;5.03;;
59418;SDS011;45224;50.904;6.038;2023-04-03T02:11:37;20.35;;;5.50;;
59418;SDS011;45224;50.904;6.038;2023-04-03T02:13:07;11.37;;;5.40;;
59418;SDS011;45224;50.904;6.038;2023-04-03T02:14:38;11.80;;;5.43;;
59418;SDS011;45224;50.904;6.038;2023-04-03T02:16:10;11.47;;;5.17;;
59418;SDS011;45224;50.904;6.038;2023-04-03T02:17:41;9.20;;;5.25;;
59418;SDS011;45224;50.904;6.038;2023-04-03T02:19:11;6.90;;;4.70;;
59418;SDS011;45224;50.904;6.038;2023-04-03T02:20:42;9.57;;;5.30;;
59418;SDS011;45224;50.904;6.038;2023-04-03T02:22:12;9.43;;;5.50;;
59418;SDS011;45224;50.904;6.038;2023-04-03T02:23:43;9.20;;;5.00;;
59418;SDS011;45224;50.904;6.038;2023-04-03T02:25:13;7.77;;;5.27;;
59418;SDS011;45224;50.904;6.038;2023-04-03T02:26:44;10.73;;;5.70;;
59418;SDS011;45224;50.904;6.038;2023-04-03T02:28:15;10.23;;;5.67;;
59418;SDS011;45224;50.904;6.038;2023-04-03T02:29:45;8.33;;;5.43;;
59418;SDS011;45224;50.904;6.038;2023-04-03T02:31:16;9.57;;;5.70;;
59418;SDS011;45224;50.904;6.038;2023-04-03T02:32:48;9.35;;;5.45;;
59418;SDS011;45224;50.904;6.038;2023-04-03T02:34:19;12.07;;;6.00;;
59418;SDS011;45224;50.904;6.038;2023-04-03T02:37:27;10.55;;;5.72;;
59418;SDS011;45224;50.904;6.038;2023-04-03T02:38:58;11.85;;;6.15;;
59418;SDS011;45224;50.904;6.038;2023-04-03T02:40:28;9.50;;;6.43;;
59418;SDS011;45224;50.904;6.038;2023-04-03T02:41:59;11.20;;;6.40;;
59418;SDS011;45224;50.904;6.038;2023-04-03T02:43:29;9.37;;;5.90;;
59418;SDS011;45224;50.904;6.038;2023-04-03T02:45:00;10.70;;;6.43;;
59418;SDS011;45224;50.904;6.038;2023-04-03T02:46:31;12.48;;;7.20;;
59418;SDS011;45224;50.904;6.038;2023-04-03T02:48:01;9.30;;;6.10;;
59418;SDS011;45224;50.904;6.038;2023-04-03T02:49:33;11.35;;;6.63;;
59418;SDS011;45224;50.904;6.038;2023-04-03T02:51:03;16.63;;;6.50;;
59418;SDS011;45224;50.904;6.038;2023-04-03T02:52:34;12.10;;;6.60;;
59418;SDS011;45224;50.904;6.038;2023-04-03T02:54:05;12.82;;;7.00;;
59418;SDS011;45224;50.904;6.038;2023-04-03T02:55:38;10.75;;;5.93;;
59418;SDS011;45224;50.904;6.038;2023-04-03T02:57:08;8.67;;;6.60;;
59418;SDS011;45224;50.904;6.038;2023-04-03T02:58:39;11.85;;;7.20;;
59418;SDS011;45224;50.904;6.038;2023-04-03T03:00:11;10.27;;;7.38;;
59418;SDS011;45224;50.904;6.038;2023-04-03T03:03:13;9.90;;;6.50;;
59418;SDS011;45224;50.904;6.038;2023-04-03T03:04:44;12.50;;;7.22;;
59418;SDS011;45224;50.904;6.038;2023-04-03T03:06:16;10.40;;;6.70;;
59418;SDS011;45224;50.904;6.038;2023-04-03T03:07:47;10.88;;;7.03;;
59418;SDS011;45224;50.904;6.038;2023-04-03T03:09:18;11.33;;;7.03;;
59418;SDS011;45224;50.904;6.038;2023-04-03T03:10:48;13.35;;;7.65;;
59418;SDS011;45224;50.904;6.038;2023-04-03T03:12:21;10.90;;;7.93;;
59418;SDS011;45224;50.904;6.038;2023-04-03T03:13:51;13.90;;;7.75;;
59418;SDS011;45224;50.904;6.038;2023-04-03T03:15:22;15.80;;;8.57;;
59418;SDS011;45224;50.904;6.038;2023-04-03T03:16:52;13.17;;;7.90;;
59418;SDS011;45224;50.904;6.038;2023-04-03T03:18:23;15.33;;;9.43;;
59418;SDS011;45224;50.904;6.038;2023-04-03T03:19:54;13.55;;;8.38;;
59418;SDS011;45224;50.904;6.038;2023-04-03T03:21:24;14.53;;;8.60;;
59418;SDS011;45224;50.904;6.038;2023-04-03T03:22:54;15.30;;;9.43;;
59418;SDS011;45224;50.904;6.038;2023-04-03T03:24:26;13.55;;;8.23;;
59418;SDS011;45224;50.904;6.038;2023-04-03T03:25:58;15.25;;;9.45;;
59418;SDS011;45224;50.904;6.038;2023-04-03T03:27:31;14.13;;;9.63;;
59418;SDS011;45224;50.904;6.038;2023-04-03T03:29:01;14.53;;;9.33;;
59418;SDS011;45224;50.904;6.038;2023-04-03T03:32:03;15.27;;;9.80;;
59418;SDS011;45224;50.904;6.038;2023-04-03T03:33:34;14.82;;;9.43;;
59418;SDS011;45224;50.904;6.038;2023-04-03T03:35:05;16.85;;;10.07;;
59418;SDS011;45224;50.904;6.038;2023-04-03T03:36:35;14.32;;;9.00;;
59418;SDS011;45224;50.904;6.038;2023-04-03T03:38:07;21.08;;;9.75;;
59418;SDS011;45224;50.904;6.038;2023-04-03T03:39:37;14.10;;;9.93;;
59418;SDS011;45224;50.904;6.038;2023-04-03T03:41:08;15.50;;;9.97;;
59418;SDS011;45224;50.904;6.038;2023-04-03T03:42:39;17.38;;;9.95;;
59418;SDS011;45224;50.904;6.038;2023-04-03T03:44:09;15.10;;;9.47;;
59418;SDS011;45224;50.904;6.038;2023-04-03T03:45:41;12.93;;;8.95;;
59418;SDS011;45224;50.904;6.038;2023-04-03T03:47:11;14.63;;;9.30;;
59418;SDS011;45224;50.904;6.038;2023-04-03T03:48:44;14.82;;;9.73;;
59418;SDS011;45224;50.904;6.038;2023-04-03T03:50:15;13.10;;;8.93;;
59418;SDS011;45224;50.904;6.038;2023-04-03T03:51:45;15.50;;;8.27;;
59418;SDS011;45224;50.904;6.038;2023-04-03T03:53:17;15.75;;;7.85;;
59418;SDS011;45224;50.904;6.038;2023-04-03T03:54:47;14.65;;;9.00;;
59418;SDS011;45224;50.904;6.038;2023-04-03T03:56:19;14.10;;;8.65;;
59418;SDS011;45224;50.904;6.038;2023-04-03T03:57:50;11.00;;;8.40;;
59418;SDS011;45224;50.904;6.038;2023-04-03T03:59:21;14.23;;;8.40;;
59418;SDS011;45224;50.904;6.038;2023-04-03T04:00:52;12.03;;;8.20;;
59418;SDS011;45224;50.904;6.038;2023-04-03T04:02:22;13.37;;;8.40;;
59418;SDS011;45224;50.904;6.038;2023-04-03T04:03:53;15.13;;;7.67;;
59418;SDS011;45224;50.904;6.038;2023-04-03T04:05:28;13.07;;;8.68;;
59418;SDS011;45224;50.904;6.038;2023-04-03T04:06:59;13.57;;;9.10;;
59418;SDS011;45224;50.904;6.038;2023-04-03T04:08:31;13.57;;;8.77;;
59418;SDS011;45224;50.904;6.038;2023-04-03T04:10:01;17.75;;;8.43;;
59418;SDS011;45224;50.904;6.038;2023-04-03T04:11:32;13.70;;;9.07;;
59418;SDS011;45224;50.904;6.038;2023-04-03T04:13:03;14.05;;;8.80;;
59418;SDS011;45224;50.904;6.038;2023-04-03T04:14:35;15.88;;;8.60;;
59418;SDS011;45224;50.904;6.038;2023-04-03T04:16:06;13.37;;;8.53;;
59418;SDS011;45224;50.904;6.038;2023-04-03T04:17:37;13.57;;;8.65;;
59418;SDS011;45224;50.904;6.038;2023-04-03T04:19:10;16.23;;;8.95;;
59418;SDS011;45224;50.904;6.038;2023-04-03T04:22:12;17.90;;;7.93;;
59418;SDS011;45224;50.904;6.038;2023-04-03T04:23:43;15.07;;;8.53;;
59418;SDS011;45224;50.904;6.038;2023-04-03T04:25:13;14.17;;;8.27;;
59418;SDS011;45224;50.904;6.038;2023-04-03T04:26:44;17.48;;;8.85;;
59418;SDS011;45224;50.904;6.038;2023-04-03T04:28:17;14.20;;;8.65;;
59418;SDS011;45224;50.904;6.038;2023-04-03T04:29:48;13.70;;;8.55;;
59418;SDS011;45224;50.904;6.038;2023-04-03T04:31:18;14.23;;;8.67;;
59418;SDS011;45224;50.904;6.038;2023-04-03T04:32:50;14.60;;;9.23;;
59418;SDS011;45224;50.904;6.038;2023-04-03T04:34:20;17.58;;;8.55;;
59418;SDS011;45224;50.904;6.038;2023-04-03T04:35:51;15.13;;;8.60;;
59418;SDS011;45224;50.904;6.038;2023-04-03T04:37:24;13.02;;;8.43;;
59418;SDS011;45224;50.904;6.038;2023-04-03T04:38:54;16.23;;;8.30;;
59418;SDS011;45224;50.904;6.038;2023-04-03T04:40:27;14.10;;;8.70;;
59418;SDS011;45224;50.904;6.038;2023-04-03T04:41:58;16.05;;;8.88;;
59418;SDS011;45224;50.904;6.038;2023-04-03T04:43:31;13.43;;;8.60;;
59418;SDS011;45224;50.904;6.038;2023-04-03T04:45:01;13.00;;;8.70;;
59418;SDS011;45224;50.904;6.038;2023-04-03T04:46:32;12.35;;;9.10;;
59418;SDS011;45224;50.904;6.038;2023-04-03T04:48:04;13.73;;;8.68;;
59418;SDS011;45224;50.904;6.038;2023-04-03T04:49:34;15.73;;;8.63;;
59418;SDS011;45224;50.904;6.038;2023-04-03T04:51:05;16.92;;;9.48;;
59418;SDS011;45224;50.904;6.038;2023-04-03T04:54:08;12.57;;;7.53;;
59418;SDS011;45224;50.904;6.038;2023-04-03T04:55:39;13.07;;;8.17;;
59418;SDS011;45224;50.904;6.038;2023-04-03T04:57:09;14.20;;;9.07;;
59418;SDS011;45224;50.904;6.038;2023-04-03T04:58:41;14.07;;;8.35;;
59418;SDS011;45224;50.904;6.038;2023-04-03T05:00:12;13.10;;;8.82;;
59418;SDS011;45224;50.904;6.038;2023-04-03T05:01:43;17.17;;;9.60;;
59418;SDS011;45224;50.904;6.038;2023-04-03T05:03:19;17.02;;;9.25;;
59418;SDS011;45224;50.904;6.038;2023-04-03T05:04:49;16.40;;;9.83;;
59418;SDS011;45224;50.904;6.038;2023-04-03T05:06:25;14.23;;;9.35;;
59418;SDS011;45224;50.904;6.038;2023-04-03T05:07:57;13.55;;;9.00;;
59418;SDS011;45224;50.904;6.038;2023-04-03T05:09:27;16.27;;;8.97;;
59418;SDS011;45224;50.904;6.038;2023-04-03T05:10:58;15.33;;;9.13;;
59418;SDS011;45224;50.904;6.038;2023-04-03T05:12:31;13.88;;;9.45;;
59418;SDS011;45224;50.904;6.038;2023-04-03T05:14:04;14.75;;;9.43;;
59418;SDS011;45224;50.904;6.038;2023-04-03T05:15:40;14.68;;;9.07;;
59418;SDS011;45224;50.904;6.038;2023-04-03T05:17:11;15.95;;;9.77;;
59418;SDS011;45224;50.904;6.038;2023-04-03T05:18:46;13.52;;;9.38;;
59418;SDS011;45224;50.904;6.038;2023-04-03T05:20:21;15.70;;;10.18;;
59418;SDS011;45224;50.904;6.038;2023-04-03T05:21:53;16.17;;;9.50;;
59418;SDS011;45224;50.904;6.038;2023-04-03T05:23:24;16.17;;;9.55;;
59418;SDS011;45224;50.904;6.038;2023-04-03T05:24:55;16.60;;;9.23;;
59418;SDS011;45224;50.904;6.038;2023-04-03T05:26:26;15.98;;;9.55;;
59418;SDS011;45224;50.904;6.038;2023-04-03T05:27:57;14.67;;;10.30;;
59418;SDS011;45224;50.904;6.038;2023-04-03T05:29:28;16.33;;;9.90;;
59418;SDS011;45224;50.904;6.038;2023-04-03T05:31:02;15.40;;;9.30;;
59418;SDS011;45224;50.904;6.038;2023-04-03T05:32:38;17.55;;;10.20;;
59418;SDS011;45224;50.904;6.038;2023-04-03T05:34:31;17.00;;;8.85;;
59418;SDS011;45224;50.904;6.038;2023-04-03T05:36:03;16.40;;;9.00;;
59418;SDS011;45224;50.904;6.038;2023-04-03T05:37:36;17.67;;;9.80;;
59418;SDS011;45224;50.904;6.038;2023-04-03T05:39:06;16.15;;;9.57;;
59418;SDS011;45224;50.904;6.038;2023-04-03T05:40:40;15.70;;;8.88;;
59418;SDS011;45224;50.904;6.038;2023-04-03T05:42:11;16.83;;;9.00;;
59418;SDS011;45224;50.904;6.038;2023-04-03T05:43:42;16.05;;;9.77;;
59418;SDS011;45224;50.904;6.038;2023-04-03T05:46:44;13.57;;;8.40;;
59418;SDS011;45224;50.904;6.038;2023-04-03T05:49:46;12.07;;;8.02;;
59418;SDS011;45224;50.904;6.038;2023-04-03T05:51:33;15.98;;;8.45;;
59418;SDS011;45224;50.904;6.038;2023-04-03T05:53:15;16.05;;;8.43;;
59418;SDS011;45224;50.904;6.038;2023-04-03T05:54:52;14.70;;;9.23;;
59418;SDS011;45224;50.904;6.038;2023-04-03T05:56:28;13.70;;;8.38;;
59418;SDS011;45224;50.904;6.038;2023-04-03T05:57:58;15.90;;;8.90;;
59418;SDS011;45224;50.904;6.038;2023-04-03T05:59:29;14.83;;;8.67;;
59418;SDS011;45224;50.904;6.038;2023-04-03T06:01:02;14.20;;;9.27;;
59418;SDS011;45224;50.904;6.038;2023-04-03T06:02:32;19.70;;;8.77;;
59418;SDS011;45224;50.904;6.038;2023-04-03T06:05:34;14.68;;;8.50;;
59418;SDS011;45224;50.904;6.038;2023-04-03T06:07:05;16.97;;;9.10;;
59418;SDS011;45224;50.904;6.038;2023-04-03T06:10:10;16.02;;;9.40;;
59418;SDS011;45224;50.904;6.038;2023-04-03T06:11:42;16.45;;;9.82;;
59418;SDS011;45224;50.904;6.038;2023-04-03T06:13:13;14.80;;;8.60;;
59418;SDS011;45224;50.904;6.038;2023-04-03T06:14:43;15.75;;;9.13;;
59418;SDS011;45224;50.904;6.038;2023-04-03T06:16:14;16.38;;;8.68;;
59418;SDS011;45224;50.904;6.038;2023-04-03T06:17:47;14.05;;;8.43;;
59418;SDS011;45224;50.904;6.038;2023-04-03T06:19:17;17.20;;;8.80;;
59418;SDS011;45224;50.904;6.038;2023-04-03T06:20:53;15.13;;;8.00;;
59418;SDS011;45224;50.904;6.038;2023-04-03T06:22:23;13.37;;;8.63;;
59418;SDS011;45224;50.904;6.038;2023-04-03T06:23:55;15.98;;;9.45;;
59418;SDS011;45224;50.904;6.038;2023-04-03T06:25:26;15.07;;;9.07;;
59418;SDS011;45224;50.904;6.038;2023-04-03T06:26:57;17.60;;;8.87;;
59418;SDS011;45224;50.904;6.038;2023-04-03T06:28:28;17.00;;;8.18;;
59418;SDS011;45224;50.904;6.038;2023-04-03T06:29:59;10.70;;;8.13;;
59418;SDS011;45224;50.904;6.038;2023-04-03T06:31:29;15.03;;;8.73;;
59418;SDS011;45224;50.904;6.038;2023-04-03T06:33:00;11.35;;;8.20;;
59418;SDS011;45224;50.904;6.038;2023-04-03T06:34:30;18.73;;;8.40;;
59418;SDS011;45224;50.904;6.038;2023-04-03T06:36:03;13.70;;;8.68;;
59418;SDS011;45224;50.904;6.038;2023-04-03T06:37:35;14.43;;;7.53;;
59418;SDS011;45224;50.904;6.038;2023-04-03T06:39:06;13.20;;;7.77;;
59418;SDS011;45224;50.904;6.038;2023-04-03T06:40:37;14.68;;;8.07;;
59418;SDS011;45224;50.904;6.038;2023-04-03T06:42:07;11.93;;;7.30;;
59418;SDS011;45224;50.904;6.038;2023-04-03T06:43:49;11.68;;;7.60;;
59418;SDS011;45224;50.904;6.038;2023-04-03T06:45:19;11.83;;;7.33;;
59418;SDS011;45224;50.904;6.038;2023-04-03T06:46:50;11.80;;;7.30;;
59418;SDS011;45224;50.904;6.038;2023-04-03T06:48:21;11.93;;;7.20;;
59418;SDS011;45224;50.904;6.038;2023-04-03T06:49:52;14.83;;;7.00;;
59418;SDS011;45224;50.904;6.038;2023-04-03T06:51:26;14.20;;;6.70;;
59418;SDS011;45224;50.904;6.038;2023-04-03T06:52:58;8.55;;;5.93;;
59418;SDS011;45224;50.904;6.038;2023-04-03T06:54:29;11.02;;;6.72;;
59418;SDS011;45224;50.904;6.038;2023-04-03T06:56:00;12.30;;;6.60;;
59418;SDS011;45224;50.904;6.038;2023-04-03T06:57:30;12.90;;;6.37;;
59418;SDS011;45224;50.904;6.038;2023-04-03T06:59:01;12.90;;;6.75;;
59418;SDS011;45224;50.904;6.038;2023-04-03T07:00:32;11.25;;;6.97;;
59418;SDS011;45224;50.904;6.038;2023-04-03T07:02:02;11.77;;;6.37;;
59418;SDS011;45224;50.904;6.038;2023-04-03T07:03:33;10.25;;;5.88;;
59418;SDS011;45224;50.904;6.038;2023-04-03T07:05:04;14.50;;;5.60;;
59418;SDS011;45224;50.904;6.038;2023-04-03T07:06:35;8.55;;;5.43;;
59418;SDS011;45224;50.904;6.038;2023-04-03T07:08:06;7.77;;;5.23;;
59418;SDS011;45224;50.904;6.038;2023-04-03T07:09:36;10.17;;;5.90;;
59418;SDS011;45224;50.904;6.038;2023-04-03T07:12:39;12.70;;;4.82;;
59418;SDS011;45224;50.904;6.038;2023-04-03T07:14:10;8.23;;;4.63;;
59418;SDS011;45224;50.904;6.038;2023-04-03T07:15:40;6.55;;;4.22;;
59418;SDS011;45224;50.904;6.038;2023-04-03T07:17:11;9.63;;;4.70;;
59418;SDS011;45224;50.904;6.038;2023-04-03T07:18:41;9.23;;;4.17;;
59418;SDS011;45224;50.904;6.038;2023-04-03T07:20:12;7.93;;;4.23;;
59418;SDS011;45224;50.904;6.038;2023-04-03T07:21:43;6.85;;;4.05;;
59418;SDS011;45224;50.904;6.038;2023-04-03T07:23:14;9.07;;;3.88;;
59418;SDS011;45224;50.904;6.038;2023-04-03T07:24:45;5.22;;;3.03;;
59418;SDS011;45224;50.904;6.038;2023-04-03T07:26:16;10.30;;;4.32;;
59418;SDS011;45224;50.904;6.038;2023-04-03T07:27:46;7.90;;;4.00;;
59418;SDS011;45224;50.904;6.038;2023-04-03T07:29:17;6.78;;;3.90;;
59418;SDS011;45224;50.904;6.038;2023-04-03T07:30:49;7.63;;;3.55;;
59418;SDS011;45224;50.904;6.038;2023-04-03T07:32:21;7.18;;;4.20;;
59418;SDS011;45224;50.904;6.038;2023-04-03T07:33:52;7.43;;;4.10;;
59418;SDS011;45224;50.904;6.038;2023-04-03T07:35:22;10.00;;;3.80;;
59418;SDS011;45224;50.904;6.038;2023-04-03T07:36:52;10.47;;;3.97;;
59418;SDS011;45224;50.904;6.038;2023-04-03T07:38:23;7.83;;;3.67;;
59418;SDS011;45224;50.904;6.038;2023-04-03T07:39:54;7.90;;;3.10;;
59418;SDS011;45224;50.904;6.038;2023-04-03T07:41:25;4.88;;;3.42;;
59418;SDS011;45224;50.904;6.038;2023-04-03T07:42:55;10.80;;;3.60;;
59418;SDS011;45224;50.904;6.038;2023-04-03T07:44:27;6.90;;;3.47;;
59418;SDS011;45224;50.904;6.038;2023-04-03T07:47:28;8.10;;;3.33;;
59418;SDS011;45224;50.904;6.038;2023-04-03T07:48:59;5.60;;;3.30;;
59418;SDS011;45224;50.904;6.038;2023-04-03T07:50:29;6.80;;;3.50;;
59418;SDS011;45224;50.904;6.038;2023-04-03T07:52:01;8.38;;;3.10;;
59418;SDS011;45224;50.904;6.038;2023-04-03T07:53:32;6.93;;;3.00;;
59418;SDS011;45224;50.904;6.038;2023-04-03T07:55:02;8.10;;;3.80;;
59418;SDS011;45224;50.904;6.038;2023-04-03T07:56:33;5.65;;;2.97;;
59418;SDS011;45224;50.904;6.038;2023-04-03T07:58:03;6.33;;;2.93;;
59418;SDS011;45224;50.904;6.038;2023-04-03T07:59:34;6.25;;;3.20;;
59418;SDS011;45224;50.904;6.038;2023-04-03T08:01:05;7.78;;;2.90;;
59418;SDS011;45224;50.904;6.038;2023-04-03T08:02:36;6.45;;;2.90;;
59418;SDS011;45224;50.904;6.038;2023-04-03T08:04:07;8.38;;;3.05;;
59418;SDS011;45224;50.904;6.038;2023-04-03T08:05:38;8.30;;;2.90;;
59418;SDS011;45224;50.904;6.038;2023-04-03T08:07:09;11.60;;;3.30;;
59418;SDS011;45224;50.904;6.038;2023-04-03T08:08:40;10.27;;;3.03;;
59418;SDS011;45224;50.904;6.038;2023-04-03T08:10:11;7.97;;;3.30;;
59418;SDS011;45224;50.904;6.038;2023-04-03T08:11:42;7.72;;;2.92;;
59418;SDS011;45224;50.904;6.038;2023-04-03T08:13:14;6.32;;;2.63;;
59418;SDS011;45224;50.904;6.038;2023-04-03T08:14:44;5.50;;;2.67;;
59418;SDS011;45224;50.904;6.038;2023-04-03T08:16:16;6.07;;;2.70;;
59418;SDS011;45224;50.904;6.038;2023-04-03T08:17:48;7.15;;;2.80;;
59418;SDS011;45224;50.904;6.038;2023-04-03T08:19:19;4.35;;;2.70;;
59418;SDS011;45224;50.904;6.038;2023-04-03T08:20:50;7.75;;;2.65;;
59418;SDS011;45224;50.904;6.038;2023-04-03T08:22:21;6.82;;;2.50;;
59418;SDS011;45224;50.904;6.038;2023-04-03T08:23:52;4.40;;;2.30;;
59418;SDS011;45224;50.904;6.038;2023-04-03T08:25:22;8.63;;;2.23;;
59418;SDS011;45224;50.904;6.038;2023-04-03T08:26:53;5.35;;;2.40;;
59418;SDS011;45224;50.904;6.038;2023-04-03T08:28:23;5.07;;;2.58;;
59418;SDS011;45224;50.904;6.038;2023-04-03T08:29:55;5.50;;;2.78;;
59418;SDS011;45224;50.904;6.038;2023-04-03T08:31:26;8.63;;;2.88;;
59418;SDS011;45224;50.904;6.038;2023-04-03T08:32:59;6.63;;;2.95;;
59418;SDS011;45224;50.904;6.038;2023-04-03T08:34:31;4.75;;;2.35;;
59418;SDS011;45224;50.904;6.038;2023-04-03T08:36:05;6.32;;;2.58;;
59418;SDS011;45224;50.904;6.038;2023-04-03T08:37:37;9.00;;;2.80;;
59418;SDS011;45224;50.904;6.038;2023-04-03T08:39:09;5.75;;;2.50;;
59418;SDS011;45224;50.904;6.038;2023-04-03T08:45:48;7.55;;;3.10;;
59418;SDS011;45224;50.904;6.038;2023-04-03T08:47:25;8.00;;;2.75;;
59418;SDS011;45224;50.904;6.038;2023-04-03T08:49:02;7.05;;;2.60;;
59418;SDS011;45224;50.904;6.038;2023-04-03T08:50:41;7.38;;;2.75;;
59418;SDS011;45224;50.904;6.038;2023-04-03T08:52:17;6.20;;;2.90;;
59418;SDS011;45224;50.904;6.038;2023-04-03T08:54:12;9.98;;;3.10;;
59418;SDS011;45224;50.904;6.038;2023-04-03T08:56:04;12.52;;;3.30;;
59418;SDS011;45224;50.904;6.038;2023-04-03T08:57:39;7.63;;;2.70;;
59418;SDS011;45224;50.904;6.038;2023-04-03T08:59:13;14.27;;;3.05;;
59418;SDS011;45224;50.904;6.038;2023-04-03T09:02:34;7.85;;;2.65;;
59418;SDS011;45224;50.904;6.038;2023-04-03T09:04:12;7.22;;;2.63;;
59418;SDS011;45224;50.904;6.038;2023-04-03T09:06:00;8.77;;;2.83;;
59418;SDS011;45224;50.904;6.038;2023-04-03T09:07:41;8.80;;;3.13;;
59418;SDS011;45224;50.904;6.038;2023-04-03T09:09:20;7.80;;;3.03;;
59418;SDS011;45224;50.904;6.038;2023-04-03T09:11:05;13.68;;;3.30;;
59418;SDS011;45224;50.904;6.038;2023-04-03T09:12:44;10.23;;;2.88;;
59418;SDS011;45224;50.904;6.038;2023-04-03T09:14:31;8.20;;;2.70;;
59418;SDS011;45224;50.904;6.038;2023-04-03T09:16:14;5.95;;;2.83;;
59418;SDS011;45224;50.904;6.038;2023-04-03T09:21:13;11.90;;;3.35;;
59418;SDS011;45224;50.904;6.038;2023-04-03T09:22:51;8.10;;;2.70;;
59418;SDS011;45224;50.904;6.038;2023-04-03T09:24:24;5.35;;;2.42;;
59418;SDS011;45224;50.904;6.038;2023-04-03T09:26:02;5.93;;;2.70;;
59418;SDS011;45224;50.904;6.038;2023-04-03T09:27:36;7.22;;;2.53;;
59418;SDS011;45224;50.904;6.038;2023-04-03T09:29:07;7.28;;;2.90;;
59418;SDS011;45224;50.904;6.038;2023-04-03T09:30:38;7.75;;;2.80;;
59418;SDS011;45224;50.904;6.038;2023-04-03T09:32:28;8.23;;;2.58;;
59418;SDS011;45224;50.904;6.038;2023-04-03T09:34:05;9.45;;;2.50;;
59418;SDS011;45224;50.904;6.038;2023-04-03T09:35:40;5.43;;;2.25;;
59418;SDS011;45224;50.904;6.038;2023-04-03T09:37:11;8.82;;;2.90;;
59418;SDS011;45224;50.904;6.038;2023-04-03T09:39:05;5.07;;;2.20;;
59418;SDS011;45224;50.904;6.038;2023-04-03T09:40:40;7.85;;;2.47;;
59418;SDS011;45224;50.904;6.038;2023-04-03T09:42:14;11.70;;;2.70;;
59418;SDS011;45224;50.904;6.038;2023-04-03T09:43:52;6.18;;;2.63;;
59418;SDS011;45224;50.904;6.038;2023-04-03T09:45:32;8.27;;;2.53;;
59418;SDS011;45224;50.904;6.038;2023-04-03T09:47:24;6.90;;;2.38;;